Detall de PIREP

Printer-friendly versionPDF version

[2013/07/30 15:00:00]
Flight IATA:CT1004
Pilot Number:012
Company ICAO:CAT
Aircraft Type:C750/F
PAX:4
Departing Airport: LEBL
Destination Airport: EGLC
Alternate Airport:EGKK
Online: VATSIM
Route:OKABI UN861 TOU UY120 TUPAR UN861 DIKRO UZ273 NEVIL M189 WAFFU
Flight Level:F510
No Slew and time accel
No pause
Crash detect
Detect pilot in Cockpit between each 30 and 45 minutes
15:00 Zero fuel Weight: 22592 Lbs, Fuel Weight: 4755 Lbs
15:00 VATSIM:LEBL 301430Z 21013KT 9999 FEW025 29/18 Q1022 NOSIG
15:00 VATSIM:EGLC 301420Z 24008KT 200V270 9999 FEW007 BKN010 BKN016 19/17 Q1011 REDZ
15:00 VOICE CATALONIAN / SUMMER CHARTER
15:12 Parking Brakes off
15:16 Take-off
15:16 Take off Weight: 27241 Lbs
15:16 Wind: 210º @ 013 Knots Heading: 243º
15:16 POS N41º 17´ 13´´ E002º 05´ 17´´
15:17 Gear Up: 156 Knots
15:17 Flaps:3 at 156 Knots
15:17 Flaps:2 at 173 Knots
15:17 Flaps:0 at175 Knots
15:32 Wind:288º@038 Knots Heading: 349º Ground Speed: 491 Knots Altitude 37864 ft
15:41 TOC
15:41 Fuel Weight: 3869 Lb
15:47 Wind:257º@017 Knots Heading: 331º Ground Speed: 499 Knots Altitude 51289 ft
16:02 Wind:254º@021 Knots Heading: 330º Ground Speed: 513 Knots Altitude 51282 ft
16:17 Wind:248º@027 Knots Heading: 352º Ground Speed: 525 Knots Altitude 51174 ft
16:27 TOD
16:27 Fuel Weight: 3136 Lb
16:32 Wind:269º@068 Knots Heading: 031º Ground Speed: 515 Knots Altitude 37276 ft
16:47 Wind:238º@015 Knots Heading: 287º Ground Speed: 254 Knots Altitude 8326 ft
16:52 Flaps:2 at 174 Knots
16:54 Flaps:3 at 142 Knots
16:54 Flaps:4 at 158 Knots
16:55 Gear Down: 145 Knots
16:55 Flaps:5 at 136 Knots
16:57 TouchDown:Rate -224 ft/min Speed: 114 Knots
16:57 VATSIM:EGLC 301620Z 23011KT 9999 SCT016 SCT022 21/17 Q1011
16:57 Land
16:57 Wind:231º@011 Knots
16:57 Heading: 271º
16:57 Flight Duration: 01:41
16:57 Landing Weight: 25444 Lbs
16:57 POS N51º 30´ 19´´ E000º 02´ 52´´
17:00 Parking brakes on
17:00 Block to Block Duration: 01:48
17:00 Final Fuel: 2826 Lbls
17:00 Spent Fuel: 1929 Lbls
17:00 Flight Length: 734 NM
17:00 TOD Land Length: 170 NM

Exportar CSV

Powered by Drupal - Modified by Danger4k